Upper Frankford, Pennsylvania
Current Conditions -  °F | °C
As of 2:56 PM on Thursday 30 Oct 2014 (Local Time) from KCXY Reporting Station
Overcast Overcast  
Wind Chill: 55°   Ceiling: 5500
Heat Index: 55°   Visibility: 10mi
Dew Point: 37°   Wind: 8mph
Humidity: 51%   Direction: 310°NW
Pressure: 30.03"   Gusts: NA
Location:  40.183°N, 77.4166°W
Report Text: KCXY 301856Z 31007KT 10SM OVC055 13/03 A3003 RMK AO2 SLP170 T01280028
Loading
Personal Weather Stations






























Interactive Weather Map
Tropical Storm Tracking
New forecast layout! Learn more

10-Day Weather Forecast

Advertisements
Track Severe Weather on mobile